sensor_id;sensor_type;location;lat;lon;timestamp;P1;durP1;ratioP1;P2;durP2;ratioP2
69334;SDS011;56477;52.742;15.242;2022-10-16T00:02:01;14.50;;;7.47;;
69334;SDS011;56477;52.742;15.242;2022-10-16T00:04:27;18.20;;;9.95;;
69334;SDS011;56477;52.742;15.242;2022-10-16T00:06:53;15.32;;;8.20;;
69334;SDS011;56477;52.742;15.242;2022-10-16T00:09:19;15.73;;;7.90;;
69334;SDS011;56477;52.742;15.242;2022-10-16T00:11:45;14.73;;;8.32;;
69334;SDS011;56477;52.742;15.242;2022-10-16T00:14:12;17.50;;;8.73;;
69334;SDS011;56477;52.742;15.242;2022-10-16T00:16:40;15.52;;;8.70;;
69334;SDS011;56477;52.742;15.242;2022-10-16T00:19:07;16.98;;;9.02;;
69334;SDS011;56477;52.742;15.242;2022-10-16T00:21:34;16.57;;;8.47;;
69334;SDS011;56477;52.742;15.242;2022-10-16T00:24:02;16.08;;;8.77;;
69334;SDS011;56477;52.742;15.242;2022-10-16T00:26:31;18.25;;;9.23;;
69334;SDS011;56477;52.742;15.242;2022-10-16T00:29:01;18.40;;;9.07;;
69334;SDS011;56477;52.742;15.242;2022-10-16T00:31:28;15.32;;;8.52;;
69334;SDS011;56477;52.742;15.242;2022-10-16T00:33:54;18.17;;;8.70;;
69334;SDS011;56477;52.742;15.242;2022-10-16T00:36:22;15.18;;;8.45;;
69334;SDS011;56477;52.742;15.242;2022-10-16T00:38:55;14.80;;;8.15;;
69334;SDS011;56477;52.742;15.242;2022-10-16T00:41:25;14.57;;;8.32;;
69334;SDS011;56477;52.742;15.242;2022-10-16T00:43:54;14.93;;;8.48;;
69334;SDS011;56477;52.742;15.242;2022-10-16T00:46:23;14.47;;;8.10;;
69334;SDS011;56477;52.742;15.242;2022-10-16T00:49:00;13.05;;;7.10;;
69334;SDS011;56477;52.742;15.242;2022-10-16T00:51:32;14.73;;;7.82;;
69334;SDS011;56477;52.742;15.242;2022-10-16T00:54:18;14.75;;;8.18;;
69334;SDS011;56477;52.742;15.242;2022-10-16T00:56:47;14.85;;;8.02;;
69334;SDS011;56477;52.742;15.242;2022-10-16T00:59:18;13.30;;;7.90;;
69334;SDS011;56477;52.742;15.242;2022-10-16T01:01:47;15.20;;;7.75;;
69334;SDS011;56477;52.742;15.242;2022-10-16T01:04:13;15.00;;;8.27;;
69334;SDS011;56477;52.742;15.242;2022-10-16T01:06:46;16.00;;;8.52;;
69334;SDS011;56477;52.742;15.242;2022-10-16T01:09:30;16.75;;;9.00;;
69334;SDS011;56477;52.742;15.242;2022-10-16T01:12:20;14.00;;;7.63;;
69334;SDS011;56477;52.742;15.242;2022-10-16T01:17:51;18.48;;;9.45;;
69334;SDS011;56477;52.742;15.242;2022-10-16T01:31:28;13.63;;;7.80;;
69334;SDS011;56477;52.742;15.242;2022-10-16T01:37:12;16.10;;;7.80;;
69334;SDS011;56477;52.742;15.242;2022-10-16T01:39:41;16.10;;;8.47;;
69334;SDS011;56477;52.742;15.242;2022-10-16T01:42:24;15.38;;;7.82;;
69334;SDS011;56477;52.742;15.242;2022-10-16T01:44:59;15.68;;;7.93;;
69334;SDS011;56477;52.742;15.242;2022-10-16T01:47:26;14.18;;;8.05;;
69334;SDS011;56477;52.742;15.242;2022-10-16T01:49:53;13.40;;;7.57;;
69334;SDS011;56477;52.742;15.242;2022-10-16T01:52:21;15.33;;;8.00;;
69334;SDS011;56477;52.742;15.242;2022-10-16T01:54:50;14.13;;;7.25;;
69334;SDS011;56477;52.742;15.242;2022-10-16T01:57:19;16.98;;;8.07;;
69334;SDS011;56477;52.742;15.242;2022-10-16T01:59:48;14.35;;;7.75;;
69334;SDS011;56477;52.742;15.242;2022-10-16T02:02:17;15.02;;;8.45;;
69334;SDS011;56477;52.742;15.242;2022-10-16T02:04:46;14.77;;;7.50;;
69334;SDS011;56477;52.742;15.242;2022-10-16T02:07:18;15.45;;;8.75;;
69334;SDS011;56477;52.742;15.242;2022-10-16T02:09:44;14.85;;;7.72;;
69334;SDS011;56477;52.742;15.242;2022-10-16T02:12:14;16.20;;;8.50;;
69334;SDS011;56477;52.742;15.242;2022-10-16T02:14:47;13.80;;;7.47;;
69334;SDS011;56477;52.742;15.242;2022-10-16T02:17:13;14.23;;;7.37;;
69334;SDS011;56477;52.742;15.242;2022-10-16T02:19:41;14.13;;;7.03;;
69334;SDS011;56477;52.742;15.242;2022-10-16T02:22:09;14.80;;;7.50;;
69334;SDS011;56477;52.742;15.242;2022-10-16T02:24:46;17.33;;;7.80;;
69334;SDS011;56477;52.742;15.242;2022-10-16T02:27:22;16.47;;;8.53;;
69334;SDS011;56477;52.742;15.242;2022-10-16T02:29:55;14.70;;;7.10;;
69334;SDS011;56477;52.742;15.242;2022-10-16T02:32:28;15.85;;;7.78;;
69334;SDS011;56477;52.742;15.242;2022-10-16T02:34:57;14.30;;;7.40;;
69334;SDS011;56477;52.742;15.242;2022-10-16T02:37:25;14.73;;;7.70;;
69334;SDS011;56477;52.742;15.242;2022-10-16T02:39:52;16.57;;;8.17;;
69334;SDS011;56477;52.742;15.242;2022-10-16T02:42:20;13.38;;;7.35;;
69334;SDS011;56477;52.742;15.242;2022-10-16T02:44:46;14.30;;;7.80;;
69334;SDS011;56477;52.742;15.242;2022-10-16T02:47:11;14.00;;;7.65;;
69334;SDS011;56477;52.742;15.242;2022-10-16T02:49:38;12.70;;;7.17;;
69334;SDS011;56477;52.742;15.242;2022-10-16T02:52:03;13.65;;;7.20;;
69334;SDS011;56477;52.742;15.242;2022-10-16T02:54:30;14.38;;;7.60;;
69334;SDS011;56477;52.742;15.242;2022-10-16T02:56:55;14.57;;;7.70;;
69334;SDS011;56477;52.742;15.242;2022-10-16T02:59:21;13.13;;;7.95;;
69334;SDS011;56477;52.742;15.242;2022-10-16T03:01:47;13.68;;;8.20;;
69334;SDS011;56477;52.742;15.242;2022-10-16T03:04:14;16.00;;;8.07;;
69334;SDS011;56477;52.742;15.242;2022-10-16T03:06:40;14.30;;;8.20;;
69334;SDS011;56477;52.742;15.242;2022-10-16T03:09:06;15.53;;;8.37;;
69334;SDS011;56477;52.742;15.242;2022-10-16T03:11:32;13.80;;;8.05;;
69334;SDS011;56477;52.742;15.242;2022-10-16T03:13:58;13.90;;;7.90;;
69334;SDS011;56477;52.742;15.242;2022-10-16T03:16:24;11.87;;;6.67;;
69334;SDS011;56477;52.742;15.242;2022-10-16T03:18:50;13.75;;;8.07;;
69334;SDS011;56477;52.742;15.242;2022-10-16T03:21:16;15.20;;;7.63;;
69334;SDS011;56477;52.742;15.242;2022-10-16T03:23:42;15.85;;;7.95;;
69334;SDS011;56477;52.742;15.242;2022-10-16T03:26:08;13.63;;;7.17;;
69334;SDS011;56477;52.742;15.242;2022-10-16T03:28:34;14.68;;;8.25;;
69334;SDS011;56477;52.742;15.242;2022-10-16T03:30:59;13.45;;;8.00;;
69334;SDS011;56477;52.742;15.242;2022-10-16T03:33:25;15.70;;;8.10;;
69334;SDS011;56477;52.742;15.242;2022-10-16T03:35:52;15.17;;;7.33;;
69334;SDS011;56477;52.742;15.242;2022-10-16T03:38:20;14.38;;;7.40;;
69334;SDS011;56477;52.742;15.242;2022-10-16T03:40:46;14.75;;;8.15;;
69334;SDS011;56477;52.742;15.242;2022-10-16T03:43:12;13.07;;;6.63;;
69334;SDS011;56477;52.742;15.242;2022-10-16T03:45:38;12.07;;;6.40;;
69334;SDS011;56477;52.742;15.242;2022-10-16T03:48:05;15.95;;;8.63;;
69334;SDS011;56477;52.742;15.242;2022-10-16T03:50:31;15.85;;;8.43;;
69334;SDS011;56477;52.742;15.242;2022-10-16T03:52:57;16.67;;;8.85;;
69334;SDS011;56477;52.742;15.242;2022-10-16T03:55:23;14.33;;;8.20;;
69334;SDS011;56477;52.742;15.242;2022-10-16T03:57:49;14.97;;;8.07;;
69334;SDS011;56477;52.742;15.242;2022-10-16T04:00:15;15.98;;;8.80;;
69334;SDS011;56477;52.742;15.242;2022-10-16T04:02:41;19.40;;;8.43;;
69334;SDS011;56477;52.742;15.242;2022-10-16T04:05:07;14.55;;;7.82;;
69334;SDS011;56477;52.742;15.242;2022-10-16T04:07:33;15.73;;;8.00;;
69334;SDS011;56477;52.742;15.242;2022-10-16T04:09:59;14.05;;;7.47;;
69334;SDS011;56477;52.742;15.242;2022-10-16T04:12:26;15.52;;;7.88;;
69334;SDS011;56477;52.742;15.242;2022-10-16T04:14:52;14.25;;;7.65;;
69334;SDS011;56477;52.742;15.242;2022-10-16T04:17:18;13.70;;;6.97;;
69334;SDS011;56477;52.742;15.242;2022-10-16T04:19:44;17.52;;;9.05;;
69334;SDS011;56477;52.742;15.242;2022-10-16T04:22:11;16.25;;;8.57;;
69334;SDS011;56477;52.742;15.242;2022-10-16T04:24:37;16.48;;;9.40;;
69334;SDS011;56477;52.742;15.242;2022-10-16T04:27:03;16.43;;;8.67;;
69334;SDS011;56477;52.742;15.242;2022-10-16T04:29:28;15.18;;;7.80;;
69334;SDS011;56477;52.742;15.242;2022-10-16T04:31:56;15.55;;;8.68;;
69334;SDS011;56477;52.742;15.242;2022-10-16T04:34:22;15.33;;;7.17;;
69334;SDS011;56477;52.742;15.242;2022-10-16T04:36:48;14.40;;;8.00;;
69334;SDS011;56477;52.742;15.242;2022-10-16T04:39:14;17.77;;;8.25;;
69334;SDS011;56477;52.742;15.242;2022-10-16T04:41:41;15.43;;;8.55;;
69334;SDS011;56477;52.742;15.242;2022-10-16T04:44:07;14.70;;;7.95;;
69334;SDS011;56477;52.742;15.242;2022-10-16T04:46:33;18.48;;;8.95;;
69334;SDS011;56477;52.742;15.242;2022-10-16T04:48:59;16.13;;;7.97;;
69334;SDS011;56477;52.742;15.242;2022-10-16T04:51:26;14.48;;;7.70;;
69334;SDS011;56477;52.742;15.242;2022-10-16T04:53:53;13.85;;;7.07;;
69334;SDS011;56477;52.742;15.242;2022-10-16T04:56:20;14.27;;;7.80;;
69334;SDS011;56477;52.742;15.242;2022-10-16T04:58:47;14.57;;;7.30;;
69334;SDS011;56477;52.742;15.242;2022-10-16T05:01:13;17.70;;;8.73;;
69334;SDS011;56477;52.742;15.242;2022-10-16T05:03:39;15.18;;;7.68;;
69334;SDS011;56477;52.742;15.242;2022-10-16T05:06:05;17.35;;;8.18;;
69334;SDS011;56477;52.742;15.242;2022-10-16T05:08:32;17.45;;;8.60;;
69334;SDS011;56477;52.742;15.242;2022-10-16T05:10:58;16.35;;;8.35;;
69334;SDS011;56477;52.742;15.242;2022-10-16T05:13:24;17.57;;;8.40;;
69334;SDS011;56477;52.742;15.242;2022-10-16T05:15:50;15.40;;;8.07;;
69334;SDS011;56477;52.742;15.242;2022-10-16T05:18:16;16.58;;;8.27;;
69334;SDS011;56477;52.742;15.242;2022-10-16T05:20:42;15.90;;;8.37;;
69334;SDS011;56477;52.742;15.242;2022-10-16T05:23:08;13.35;;;7.25;;
69334;SDS011;56477;52.742;15.242;2022-10-16T05:25:38;14.95;;;8.27;;
69334;SDS011;56477;52.742;15.242;2022-10-16T05:28:03;13.63;;;7.10;;
69334;SDS011;56477;52.742;15.242;2022-10-16T05:30:29;15.38;;;8.05;;
69334;SDS011;56477;52.742;15.242;2022-10-16T05:32:55;14.23;;;7.15;;
69334;SDS011;56477;52.742;15.242;2022-10-16T05:35:21;13.43;;;6.72;;
69334;SDS011;56477;52.742;15.242;2022-10-16T05:37:47;13.20;;;6.57;;
69334;SDS011;56477;52.742;15.242;2022-10-16T05:40:13;12.50;;;6.32;;
69334;SDS011;56477;52.742;15.242;2022-10-16T05:42:40;13.43;;;7.45;;
69334;SDS011;56477;52.742;15.242;2022-10-16T05:45:07;15.15;;;7.00;;
69334;SDS011;56477;52.742;15.242;2022-10-16T05:47:35;13.40;;;6.82;;
69334;SDS011;56477;52.742;15.242;2022-10-16T05:50:01;16.73;;;7.83;;
69334;SDS011;56477;52.742;15.242;2022-10-16T05:52:27;14.05;;;7.00;;
69334;SDS011;56477;52.742;15.242;2022-10-16T05:54:53;15.70;;;6.50;;
69334;SDS011;56477;52.742;15.242;2022-10-16T05:57:19;12.15;;;6.47;;
69334;SDS011;56477;52.742;15.242;2022-10-16T05:59:45;12.83;;;7.20;;
69334;SDS011;56477;52.742;15.242;2022-10-16T06:02:14;16.48;;;7.40;;
69334;SDS011;56477;52.742;15.242;2022-10-16T06:04:40;15.43;;;7.45;;
69334;SDS011;56477;52.742;15.242;2022-10-16T06:07:06;11.70;;;6.32;;
69334;SDS011;56477;52.742;15.242;2022-10-16T06:09:33;15.20;;;6.73;;
69334;SDS011;56477;52.742;15.242;2022-10-16T06:11:59;12.88;;;6.95;;
69334;SDS011;56477;52.742;15.242;2022-10-16T06:14:25;13.40;;;6.20;;
69334;SDS011;56477;52.742;15.242;2022-10-16T06:16:51;12.13;;;6.07;;
69334;SDS011;56477;52.742;15.242;2022-10-16T06:19:17;14.97;;;6.70;;
69334;SDS011;56477;52.742;15.242;2022-10-16T06:21:43;11.38;;;7.15;;
69334;SDS011;56477;52.742;15.242;2022-10-16T06:24:10;11.50;;;6.20;;
69334;SDS011;56477;52.742;15.242;2022-10-16T06:26:36;11.27;;;6.20;;
69334;SDS011;56477;52.742;15.242;2022-10-16T06:29:04;13.83;;;6.20;;
69334;SDS011;56477;52.742;15.242;2022-10-16T06:31:30;11.50;;;5.45;;
69334;SDS011;56477;52.742;15.242;2022-10-16T06:33:59;10.60;;;5.82;;
69334;SDS011;56477;52.742;15.242;2022-10-16T06:36:25;8.55;;;5.00;;
69334;SDS011;56477;52.742;15.242;2022-10-16T06:38:52;8.95;;;5.60;;
69334;SDS011;56477;52.742;15.242;2022-10-16T06:41:19;8.80;;;4.90;;
69334;SDS011;56477;52.742;15.242;2022-10-16T06:43:47;8.63;;;5.47;;
69334;SDS011;56477;52.742;15.242;2022-10-16T06:46:15;7.28;;;4.22;;
69334;SDS011;56477;52.742;15.242;2022-10-16T06:48:42;10.65;;;5.75;;
69334;SDS011;56477;52.742;15.242;2022-10-16T06:51:12;8.85;;;5.07;;
69334;SDS011;56477;52.742;15.242;2022-10-16T06:53:44;8.87;;;4.90;;
69334;SDS011;56477;52.742;15.242;2022-10-16T06:56:16;13.05;;;5.63;;
69334;SDS011;56477;52.742;15.242;2022-10-16T06:58:46;9.70;;;5.63;;
69334;SDS011;56477;52.742;15.242;2022-10-16T07:01:12;11.63;;;5.90;;
69334;SDS011;56477;52.742;15.242;2022-10-16T07:03:40;11.80;;;6.15;;
69334;SDS011;56477;52.742;15.242;2022-10-16T07:06:08;12.20;;;6.27;;
69334;SDS011;56477;52.742;15.242;2022-10-16T07:08:36;10.57;;;6.20;;
69334;SDS011;56477;52.742;15.242;2022-10-16T07:11:05;11.13;;;5.63;;
69334;SDS011;56477;52.742;15.242;2022-10-16T07:13:33;10.35;;;5.90;;
69334;SDS011;56477;52.742;15.242;2022-10-16T07:16:07;10.88;;;6.03;;
69334;SDS011;56477;52.742;15.242;2022-10-16T07:18:37;10.10;;;5.80;;
69334;SDS011;56477;52.742;15.242;2022-10-16T07:21:09;8.70;;;5.03;;
69334;SDS011;56477;52.742;15.242;2022-10-16T07:23:37;9.50;;;5.97;;
69334;SDS011;56477;52.742;15.242;2022-10-16T07:26:03;8.82;;;4.43;;
69334;SDS011;56477;52.742;15.242;2022-10-16T07:28:30;8.52;;;5.45;;
69334;SDS011;56477;52.742;15.242;2022-10-16T07:31:07;9.13;;;5.13;;
69334;SDS011;56477;52.742;15.242;2022-10-16T07:33:36;9.13;;;5.53;;
69334;SDS011;56477;52.742;15.242;2022-10-16T07:36:03;9.10;;;5.70;;
69334;SDS011;56477;52.742;15.242;2022-10-16T07:38:30;10.40;;;5.28;;
69334;SDS011;56477;52.742;15.242;2022-10-16T07:40:56;8.47;;;5.50;;
69334;SDS011;56477;52.742;15.242;2022-10-16T07:43:24;8.85;;;5.28;;
69334;SDS011;56477;52.742;15.242;2022-10-16T07:45:50;11.63;;;5.72;;
69334;SDS011;56477;52.742;15.242;2022-10-16T07:48:17;9.77;;;5.50;;
69334;SDS011;56477;52.742;15.242;2022-10-16T07:50:43;10.40;;;6.03;;
69334;SDS011;56477;52.742;15.242;2022-10-16T07:53:10;9.13;;;5.23;;
69334;SDS011;56477;52.742;15.242;2022-10-16T07:55:36;8.88;;;5.25;;
69334;SDS011;56477;52.742;15.242;2022-10-16T07:58:03;8.50;;;4.93;;
69334;SDS011;56477;52.742;15.242;2022-10-16T08:00:29;9.55;;;5.32;;
69334;SDS011;56477;52.742;15.242;2022-10-16T08:02:56;9.57;;;5.82;;
69334;SDS011;56477;52.742;15.242;2022-10-16T08:05:29;7.10;;;4.57;;
69334;SDS011;56477;52.742;15.242;2022-10-16T08:07:56;6.95;;;4.50;;
69334;SDS011;56477;52.742;15.242;2022-10-16T08:10:23;8.52;;;4.90;;
69334;SDS011;56477;52.742;15.242;2022-10-16T08:12:51;7.03;;;3.75;;
69334;SDS011;56477;52.742;15.242;2022-10-16T08:15:17;6.33;;;4.17;;
69334;SDS011;56477;52.742;15.242;2022-10-16T08:17:44;6.30;;;3.97;;
69334;SDS011;56477;52.742;15.242;2022-10-16T08:20:10;6.40;;;4.05;;
69334;SDS011;56477;52.742;15.242;2022-10-16T08:22:36;7.20;;;4.35;;
69334;SDS011;56477;52.742;15.242;2022-10-16T08:25:02;8.67;;;4.30;;
69334;SDS011;56477;52.742;15.242;2022-10-16T08:27:32;7.60;;;4.23;;
69334;SDS011;56477;52.742;15.242;2022-10-16T08:29:58;6.57;;;4.28;;
69334;SDS011;56477;52.742;15.242;2022-10-16T08:32:24;6.57;;;4.00;;
69334;SDS011;56477;52.742;15.242;2022-10-16T08:34:49;7.28;;;4.30;;
69334;SDS011;56477;52.742;15.242;2022-10-16T08:37:15;6.83;;;4.20;;
69334;SDS011;56477;52.742;15.242;2022-10-16T08:39:41;9.70;;;4.50;;
69334;SDS011;56477;52.742;15.242;2022-10-16T08:44:59;7.78;;;4.57;;
69334;SDS011;56477;52.742;15.242;2022-10-16T08:47:43;6.97;;;3.73;;
69334;SDS011;56477;52.742;15.242;2022-10-16T08:50:25;9.13;;;4.15;;
69334;SDS011;56477;52.742;15.242;2022-10-16T08:52:53;9.52;;;4.13;;
69334;SDS011;56477;52.742;15.242;2022-10-16T08:58:30;4.25;;;2.70;;
69334;SDS011;56477;52.742;15.242;2022-10-16T09:00:57;6.97;;;3.10;;
69334;SDS011;56477;52.742;15.242;2022-10-16T09:03:32;4.65;;;3.17;;
69334;SDS011;56477;52.742;15.242;2022-10-16T09:06:27;5.35;;;3.00;;
69334;SDS011;56477;52.742;15.242;2022-10-16T09:17:26;4.45;;;2.47;;
69334;SDS011;56477;52.742;15.242;2022-10-16T09:22:29;4.25;;;2.28;;
69334;SDS011;56477;52.742;15.242;2022-10-16T09:25:00;4.63;;;2.45;;
69334;SDS011;56477;52.742;15.242;2022-10-16T09:27:36;4.13;;;2.70;;
69334;SDS011;56477;52.742;15.242;2022-10-16T09:32:58;3.83;;;2.40;;
69334;SDS011;56477;52.742;15.242;2022-10-16T09:35:32;4.25;;;2.50;;
69334;SDS011;56477;52.742;15.242;2022-10-16T09:38:02;5.38;;;2.65;;
69334;SDS011;56477;52.742;15.242;2022-10-16T09:40:32;4.23;;;2.47;;
69334;SDS011;56477;52.742;15.242;2022-10-16T09:43:13;3.80;;;1.50;;
69334;SDS011;56477;52.742;15.242;2022-10-16T09:46:47;3.65;;;2.17;;
69334;SDS011;56477;52.742;15.242;2022-10-16T09:48:59;3.70;;;1.90;;
69334;SDS011;56477;52.742;15.242;2022-10-16T09:53:59;4.93;;;2.50;;
69334;SDS011;56477;52.742;15.242;2022-10-16T09:56:27;4.25;;;2.05;;
69334;SDS011;56477;52.742;15.242;2022-10-16T09:58:59;4.03;;;2.30;;
69334;SDS011;56477;52.742;15.242;2022-10-16T10:01:46;3.85;;;2.20;;
69334;SDS011;56477;52.742;15.242;2022-10-16T10:04:14;6.03;;;2.47;;
69334;SDS011;56477;52.742;15.242;2022-10-16T10:06:44;3.97;;;2.10;;
69334;SDS011;56477;52.742;15.242;2022-10-16T10:11:44;4.10;;;1.90;;
69334;SDS011;56477;52.742;15.242;2022-10-16T10:14:17;4.03;;;2.20;;
69334;SDS011;56477;52.742;15.242;2022-10-16T10:16:44;3.80;;;1.73;;
69334;SDS011;56477;52.742;15.242;2022-10-16T10:19:17;3.73;;;1.67;;
69334;SDS011;56477;52.742;15.242;2022-10-16T10:21:44;3.28;;;1.90;;
69334;SDS011;56477;52.742;15.242;2022-10-16T10:24:14;3.72;;;2.20;;
69334;SDS011;56477;52.742;15.242;2022-10-16T10:26:43;4.70;;;2.50;;
69334;SDS011;56477;52.742;15.242;2022-10-16T10:38:20;3.58;;;1.80;;
69334;SDS011;56477;52.742;15.242;2022-10-16T10:49:12;3.72;;;2.10;;
69334;SDS011;56477;52.742;15.242;2022-10-16T10:57:35;4.13;;;2.30;;
69334;SDS011;56477;52.742;15.242;2022-10-16T11:05:53;3.97;;;1.98;;
69334;SDS011;56477;52.742;15.242;2022-10-16T11:08:46;2.80;;;1.23;;
69334;SDS011;56477;52.742;15.242;2022-10-16T11:11:29;3.42;;;1.67;;
69334;SDS011;56477;52.742;15.242;2022-10-16T11:16:49;4.15;;;2.33;;
69334;SDS011;56477;52.742;15.242;2022-10-16T11:22:19;2.55;;;1.50;;
69334;SDS011;56477;52.742;15.242;2022-10-16T11:27:43;2.90;;;1.60;;
69334;SDS011;56477;52.742;15.242;2022-10-16T11:30:16;2.80;;;1.23;;
69334;SDS011;56477;52.742;15.242;2022-10-16T11:35:17;2.30;;;1.40;;
69334;SDS011;56477;52.742;15.242;2022-10-16T11:37:49;3.38;;;1.17;;
69334;SDS011;56477;52.742;15.242;2022-10-16T11:40:19;3.07;;;1.70;;
69334;SDS011;56477;52.742;15.242;2022-10-16T11:42:51;2.92;;;1.45;;
69334;SDS011;56477;52.742;15.242;2022-10-16T11:45:32;2.58;;;1.13;;
69334;SDS011;56477;52.742;15.242;2022-10-16T11:50:59;3.75;;;1.98;;
69334;SDS011;56477;52.742;15.242;2022-10-16T11:56:17;3.88;;;1.83;;
69334;SDS011;56477;52.742;15.242;2022-10-16T12:02:40;2.63;;;1.33;;
69334;SDS011;56477;52.742;15.242;2022-10-16T12:04:53;3.20;;;2.30;;
69334;SDS011;56477;52.742;15.242;2022-10-16T12:07:32;3.10;;;2.17;;
69334;SDS011;56477;52.742;15.242;2022-10-16T12:10:11;3.92;;;1.73;;
69334;SDS011;56477;52.742;15.242;2022-10-16T12:12:45;3.45;;;1.70;;
69334;SDS011;56477;52.742;15.242;2022-10-16T12:17:51;2.03;;;1.67;;
69334;SDS011;56477;52.742;15.242;2022-10-16T12:20:22;3.00;;;1.43;;
69334;SDS011;56477;52.742;15.242;2022-10-16T12:23:04;2.55;;;1.40;;
69334;SDS011;56477;52.742;15.242;2022-10-16T12:28:06;3.20;;;1.17;;
69334;SDS011;56477;52.742;15.242;2022-10-16T12:30:52;2.60;;;1.50;;
69334;SDS011;56477;52.742;15.242;2022-10-16T12:33:24;2.37;;;1.00;;
69334;SDS011;56477;52.742;15.242;2022-10-16T12:35:52;1.55;;;1.13;;
69334;SDS011;56477;52.742;15.242;2022-10-16T12:41:11;2.30;;;1.30;;
69334;SDS011;56477;52.742;15.242;2022-10-16T12:43:44;1.77;;;1.27;;
69334;SDS011;56477;52.742;15.242;2022-10-16T12:48:38;2.60;;;1.20;;
69334;SDS011;56477;52.742;15.242;2022-10-16T12:51:12;1.60;;;1.00;;
69334;SDS011;56477;52.742;15.242;2022-10-16T12:54:15;3.65;;;1.50;;
69334;SDS011;56477;52.742;15.242;2022-10-16T12:59:35;2.63;;;0.70;;
69334;SDS011;56477;52.742;15.242;2022-10-16T13:11:11;2.63;;;1.00;;
69334;SDS011;56477;52.742;15.242;2022-10-16T13:19:17;1.73;;;0.80;;
69334;SDS011;56477;52.742;15.242;2022-10-16T13:22:05;1.75;;;0.73;;
69334;SDS011;56477;52.742;15.242;2022-10-16T13:30:38;1.50;;;0.80;;
69334;SDS011;56477;52.742;15.242;2022-10-16T13:33:15;1.33;;;0.90;;
69334;SDS011;56477;52.742;15.242;2022-10-16T13:35:49;3.60;;;0.88;;
69334;SDS011;56477;52.742;15.242;2022-10-16T13:38:18;2.22;;;1.10;;
69334;SDS011;56477;52.742;15.242;2022-10-16T13:40:56;17.73;;;1.57;;
69334;SDS011;56477;52.742;15.242;2022-10-16T13:46:04;2.05;;;0.95;;
69334;SDS011;56477;52.742;15.242;2022-10-16T13:48:41;2.08;;;1.00;;
69334;SDS011;56477;52.742;15.242;2022-10-16T13:51:14;3.60;;;0.90;;
69334;SDS011;56477;52.742;15.242;2022-10-16T13:53:42;1.60;;;0.68;;
69334;SDS011;56477;52.742;15.242;2022-10-16T13:56:13;1.50;;;0.83;;
69334;SDS011;56477;52.742;15.242;2022-10-16T13:58:41;1.93;;;0.97;;
69334;SDS011;56477;52.742;15.242;2022-10-16T14:03:41;2.50;;;0.90;;
69334;SDS011;56477;52.742;15.242;2022-10-16T14:06:12;3.47;;;2.20;;
69334;SDS011;56477;52.742;15.242;2022-10-16T14:08:43;1.40;;;0.80;;
69334;SDS011;56477;52.742;15.242;2022-10-16T14:11:19;1.30;;;0.80;;
69334;SDS011;56477;52.742;15.242;2022-10-16T14:13:50;1.10;;;0.70;;
69334;SDS011;56477;52.742;15.242;2022-10-16T14:16:22;1.20;;;0.80;;
69334;SDS011;56477;52.742;15.242;2022-10-16T14:19:00;1.70;;;0.80;;
69334;SDS011;56477;52.742;15.242;2022-10-16T14:21:29;1.55;;;0.75;;
69334;SDS011;56477;52.742;15.242;2022-10-16T14:23:55;1.88;;;0.60;;
69334;SDS011;56477;52.742;15.242;2022-10-16T14:26:22;1.30;;;0.70;;
69334;SDS011;56477;52.742;15.242;2022-10-16T14:29:08;2.00;;;0.60;;
69334;SDS011;56477;52.742;15.242;2022-10-16T14:31:37;2.75;;;0.98;;
69334;SDS011;56477;52.742;15.242;2022-10-16T14:34:21;1.80;;;0.77;;
69334;SDS011;56477;52.742;15.242;2022-10-16T14:36:58;1.40;;;0.52;;
69334;SDS011;56477;52.742;15.242;2022-10-16T14:39:40;1.00;;;0.45;;
69334;SDS011;56477;52.742;15.242;2022-10-16T14:42:19;2.33;;;0.80;;
69334;SDS011;56477;52.742;15.242;2022-10-16T14:44:52;1.13;;;0.50;;
69334;SDS011;56477;52.742;15.242;2022-10-16T14:47:20;1.75;;;0.60;;
69334;SDS011;56477;52.742;15.242;2022-10-16T14:49:50;1.30;;;0.70;;
69334;SDS011;56477;52.742;15.242;2022-10-16T14:52:17;1.30;;;0.80;;
69334;SDS011;56477;52.742;15.242;2022-10-16T14:54:43;1.67;;;0.70;;
69334;SDS011;56477;52.742;15.242;2022-10-16T14:57:18;2.83;;;1.00;;
69334;SDS011;56477;52.742;15.242;2022-10-16T14:59:46;1.83;;;0.88;;
69334;SDS011;56477;52.742;15.242;2022-10-16T15:04:39;2.33;;;0.80;;
69334;SDS011;56477;52.742;15.242;2022-10-16T15:07:07;2.37;;;0.83;;
69334;SDS011;56477;52.742;15.242;2022-10-16T15:09:33;2.15;;;0.90;;
69334;SDS011;56477;52.742;15.242;2022-10-16T15:11:59;3.03;;;0.90;;
69334;SDS011;56477;52.742;15.242;2022-10-16T15:14:25;1.33;;;0.50;;
69334;SDS011;56477;52.742;15.242;2022-10-16T15:16:51;1.80;;;0.70;;
69334;SDS011;56477;52.742;15.242;2022-10-16T15:19:20;1.77;;;1.05;;
69334;SDS011;56477;52.742;15.242;2022-10-16T15:21:47;2.08;;;1.00;;
69334;SDS011;56477;52.742;15.242;2022-10-16T15:24:15;3.78;;;1.20;;
69334;SDS011;56477;52.742;15.242;2022-10-16T15:26:41;2.20;;;1.00;;
69334;SDS011;56477;52.742;15.242;2022-10-16T15:29:08;1.70;;;0.87;;
69334;SDS011;56477;52.742;15.242;2022-10-16T15:31:34;1.88;;;0.60;;
69334;SDS011;56477;52.742;15.242;2022-10-16T15:34:01;1.70;;;0.68;;
69334;SDS011;56477;52.742;15.242;2022-10-16T15:36:30;1.88;;;0.73;;
69334;SDS011;56477;52.742;15.242;2022-10-16T15:39:05;4.53;;;0.93;;
69334;SDS011;56477;52.742;15.242;2022-10-16T15:41:36;3.53;;;1.30;;
69334;SDS011;56477;52.742;15.242;2022-10-16T15:44:02;3.90;;;1.60;;
69334;SDS011;56477;52.742;15.242;2022-10-16T15:46:27;3.28;;;1.75;;
69334;SDS011;56477;52.742;15.242;2022-10-16T15:48:55;2.97;;;1.42;;
69334;SDS011;56477;52.742;15.242;2022-10-16T15:51:23;2.43;;;1.47;;
69334;SDS011;56477;52.742;15.242;2022-10-16T15:53:50;3.22;;;1.30;;
69334;SDS011;56477;52.742;15.242;2022-10-16T15:56:17;2.72;;;1.38;;
69334;SDS011;56477;52.742;15.242;2022-10-16T15:58:43;1.92;;;1.05;;
69334;SDS011;56477;52.742;15.242;2022-10-16T16:01:09;2.05;;;1.05;;
69334;SDS011;56477;52.742;15.242;2022-10-16T16:03:37;2.70;;;1.30;;
69334;SDS011;56477;52.742;15.242;2022-10-16T16:06:06;5.78;;;2.90;;
69334;SDS011;56477;52.742;15.242;2022-10-16T16:08:35;13.80;;;6.80;;
69334;SDS011;56477;52.742;15.242;2022-10-16T16:11:03;172.80;;;67.45;;
69334;SDS011;56477;52.742;15.242;2022-10-16T16:13:34;148.80;;;55.50;;
69334;SDS011;56477;52.742;15.242;2022-10-16T16:16:04;22.43;;;8.67;;
69334;SDS011;56477;52.742;15.242;2022-10-16T16:18:33;11.00;;;3.60;;
69334;SDS011;56477;52.742;15.242;2022-10-16T16:20:58;6.18;;;2.42;;
69334;SDS011;56477;52.742;15.242;2022-10-16T16:23:24;3.75;;;1.92;;
69334;SDS011;56477;52.742;15.242;2022-10-16T16:28:38;4.40;;;2.28;;
69334;SDS011;56477;52.742;15.242;2022-10-16T16:31:04;3.83;;;2.13;;
69334;SDS011;56477;52.742;15.242;2022-10-16T16:33:31;3.88;;;1.83;;
69334;SDS011;56477;52.742;15.242;2022-10-16T16:35:58;4.38;;;2.17;;
69334;SDS011;56477;52.742;15.242;2022-10-16T16:38:25;3.93;;;2.30;;
69334;SDS011;56477;52.742;15.242;2022-10-16T16:40:52;4.05;;;1.92;;
69334;SDS011;56477;52.742;15.242;2022-10-16T16:43:19;4.05;;;1.95;;
69334;SDS011;56477;52.742;15.242;2022-10-16T16:45:48;6.13;;;2.20;;
69334;SDS011;56477;52.742;15.242;2022-10-16T16:48:14;4.40;;;1.98;;
69334;SDS011;56477;52.742;15.242;2022-10-16T16:50:39;3.03;;;1.70;;
69334;SDS011;56477;52.742;15.242;2022-10-16T16:53:06;6.07;;;1.92;;
69334;SDS011;56477;52.742;15.242;2022-10-16T16:55:32;3.28;;;1.80;;
69334;SDS011;56477;52.742;15.242;2022-10-16T16:57:59;7.25;;;3.17;;